sensor_id;sensor_type;location;lat;lon;timestamp;P1;durP1;ratioP1;P2;durP2;ratioP2
40997;SDS011;26740;45.944;12.480;2023-03-14T00:01:18;14.43;;;7.05;;
40997;SDS011;26740;45.944;12.480;2023-03-14T00:03:48;13.10;;;7.47;;
40997;SDS011;26740;45.944;12.480;2023-03-14T00:06:14;16.73;;;8.93;;
40997;SDS011;26740;45.944;12.480;2023-03-14T00:08:40;12.68;;;7.30;;
40997;SDS011;26740;45.944;12.480;2023-03-14T00:11:07;17.35;;;6.90;;
40997;SDS011;26740;45.944;12.480;2023-03-14T00:13:35;11.10;;;6.65;;
40997;SDS011;26740;45.944;12.480;2023-03-14T00:16:10;13.13;;;6.75;;
40997;SDS011;26740;45.944;12.480;2023-03-14T00:18:37;11.68;;;6.90;;
40997;SDS011;26740;45.944;12.480;2023-03-14T00:21:04;11.93;;;6.57;;
40997;SDS011;26740;45.944;12.480;2023-03-14T00:23:31;10.60;;;6.25;;
40997;SDS011;26740;45.944;12.480;2023-03-14T00:26:02;9.25;;;6.20;;
40997;SDS011;26740;45.944;12.480;2023-03-14T00:28:29;10.65;;;6.43;;
40997;SDS011;26740;45.944;12.480;2023-03-14T00:30:55;13.20;;;5.93;;
40997;SDS011;26740;45.944;12.480;2023-03-14T00:33:21;9.38;;;5.78;;
40997;SDS011;26740;45.944;12.480;2023-03-14T00:35:54;9.00;;;5.97;;
40997;SDS011;26740;45.944;12.480;2023-03-14T00:38:30;16.90;;;6.35;;
40997;SDS011;26740;45.944;12.480;2023-03-14T00:40:57;10.75;;;7.03;;
40997;SDS011;26740;45.944;12.480;2023-03-14T00:43:23;16.40;;;7.35;;
40997;SDS011;26740;45.944;12.480;2023-03-14T00:45:50;12.77;;;6.38;;
40997;SDS011;26740;45.944;12.480;2023-03-14T00:48:17;16.60;;;6.28;;
40997;SDS011;26740;45.944;12.480;2023-03-14T00:50:44;11.30;;;6.32;;
40997;SDS011;26740;45.944;12.480;2023-03-14T00:53:10;9.90;;;5.65;;
40997;SDS011;26740;45.944;12.480;2023-03-14T00:55:37;12.88;;;6.07;;
40997;SDS011;26740;45.944;12.480;2023-03-14T00:58:04;10.30;;;6.45;;
40997;SDS011;26740;45.944;12.480;2023-03-14T01:00:29;10.48;;;5.80;;
40997;SDS011;26740;45.944;12.480;2023-03-14T01:02:55;12.70;;;6.95;;
40997;SDS011;26740;45.944;12.480;2023-03-14T01:05:21;16.17;;;6.13;;
40997;SDS011;26740;45.944;12.480;2023-03-14T01:07:47;11.55;;;6.78;;
40997;SDS011;26740;45.944;12.480;2023-03-14T01:10:12;15.07;;;5.90;;
40997;SDS011;26740;45.944;12.480;2023-03-14T01:12:38;9.73;;;6.22;;
40997;SDS011;26740;45.944;12.480;2023-03-14T01:15:04;14.57;;;6.57;;
40997;SDS011;26740;45.944;12.480;2023-03-14T01:17:30;14.80;;;5.93;;
40997;SDS011;26740;45.944;12.480;2023-03-14T01:19:55;14.30;;;6.22;;
40997;SDS011;26740;45.944;12.480;2023-03-14T01:22:21;9.70;;;5.88;;
40997;SDS011;26740;45.944;12.480;2023-03-14T01:24:47;15.35;;;6.80;;
40997;SDS011;26740;45.944;12.480;2023-03-14T01:27:12;15.25;;;6.65;;
40997;SDS011;26740;45.944;12.480;2023-03-14T01:29:38;11.75;;;6.10;;
40997;SDS011;26740;45.944;12.480;2023-03-14T01:32:04;13.30;;;6.55;;
40997;SDS011;26740;45.944;12.480;2023-03-14T01:34:30;13.20;;;6.78;;
40997;SDS011;26740;45.944;12.480;2023-03-14T01:36:55;10.32;;;6.20;;
40997;SDS011;26740;45.944;12.480;2023-03-14T01:39:21;16.85;;;6.40;;
40997;SDS011;26740;45.944;12.480;2023-03-14T01:41:46;15.32;;;6.38;;
40997;SDS011;26740;45.944;12.480;2023-03-14T01:44:12;7.90;;;5.40;;
40997;SDS011;26740;45.944;12.480;2023-03-14T01:46:39;12.57;;;5.88;;
40997;SDS011;26740;45.944;12.480;2023-03-14T01:51:42;8.68;;;5.15;;
40997;SDS011;26740;45.944;12.480;2023-03-14T01:54:14;10.43;;;6.43;;
40997;SDS011;26740;45.944;12.480;2023-03-14T01:56:46;11.60;;;5.63;;
40997;SDS011;26740;45.944;12.480;2023-03-14T01:59:17;12.23;;;6.03;;
40997;SDS011;26740;45.944;12.480;2023-03-14T02:01:43;14.73;;;6.70;;
40997;SDS011;26740;45.944;12.480;2023-03-14T02:04:12;9.98;;;5.25;;
40997;SDS011;26740;45.944;12.480;2023-03-14T02:06:48;10.32;;;5.35;;
40997;SDS011;26740;45.944;12.480;2023-03-14T02:09:18;10.68;;;5.68;;
40997;SDS011;26740;45.944;12.480;2023-03-14T02:11:45;12.95;;;5.95;;
40997;SDS011;26740;45.944;12.480;2023-03-14T02:14:13;8.30;;;5.55;;
40997;SDS011;26740;45.944;12.480;2023-03-14T02:16:50;11.13;;;5.47;;
40997;SDS011;26740;45.944;12.480;2023-03-14T02:19:17;11.98;;;5.38;;
40997;SDS011;26740;45.944;12.480;2023-03-14T02:24:38;11.38;;;6.13;;
40997;SDS011;26740;45.944;12.480;2023-03-14T02:27:17;12.00;;;6.05;;
40997;SDS011;26740;45.944;12.480;2023-03-14T02:29:45;11.98;;;6.47;;
40997;SDS011;26740;45.944;12.480;2023-03-14T02:32:29;13.93;;;5.95;;
40997;SDS011;26740;45.944;12.480;2023-03-14T02:34:57;14.27;;;6.18;;
40997;SDS011;26740;45.944;12.480;2023-03-14T02:37:27;7.85;;;5.43;;
40997;SDS011;26740;45.944;12.480;2023-03-14T02:40:00;13.38;;;5.93;;
40997;SDS011;26740;45.944;12.480;2023-03-14T02:42:25;9.02;;;6.05;;
40997;SDS011;26740;45.944;12.480;2023-03-14T02:44:55;11.38;;;5.68;;
40997;SDS011;26740;45.944;12.480;2023-03-14T02:47:54;12.00;;;5.43;;
40997;SDS011;26740;45.944;12.480;2023-03-14T02:50:26;12.63;;;5.65;;
40997;SDS011;26740;45.944;12.480;2023-03-14T02:52:58;12.27;;;6.10;;
40997;SDS011;26740;45.944;12.480;2023-03-14T02:55:24;12.48;;;5.90;;
40997;SDS011;26740;45.944;12.480;2023-03-14T02:57:51;12.00;;;5.88;;
40997;SDS011;26740;45.944;12.480;2023-03-14T03:00:17;12.35;;;6.00;;
40997;SDS011;26740;45.944;12.480;2023-03-14T03:02:43;9.85;;;5.00;;
40997;SDS011;26740;45.944;12.480;2023-03-14T03:05:08;13.90;;;6.25;;
40997;SDS011;26740;45.944;12.480;2023-03-14T03:07:34;12.52;;;5.43;;
40997;SDS011;26740;45.944;12.480;2023-03-14T03:09:59;11.18;;;5.75;;
40997;SDS011;26740;45.944;12.480;2023-03-14T03:12:25;7.38;;;5.45;;
40997;SDS011;26740;45.944;12.480;2023-03-14T03:14:51;14.80;;;6.03;;
40997;SDS011;26740;45.944;12.480;2023-03-14T03:17:16;7.82;;;5.32;;
40997;SDS011;26740;45.944;12.480;2023-03-14T03:19:42;10.30;;;6.47;;
40997;SDS011;26740;45.944;12.480;2023-03-14T03:22:08;12.50;;;6.40;;
40997;SDS011;26740;45.944;12.480;2023-03-14T03:24:34;11.25;;;5.78;;
40997;SDS011;26740;45.944;12.480;2023-03-14T03:26:59;18.88;;;7.40;;
40997;SDS011;26740;45.944;12.480;2023-03-14T03:29:25;7.32;;;5.47;;
40997;SDS011;26740;45.944;12.480;2023-03-14T03:31:50;12.30;;;6.43;;
40997;SDS011;26740;45.944;12.480;2023-03-14T03:34:16;15.05;;;6.70;;
40997;SDS011;26740;45.944;12.480;2023-03-14T03:36:42;11.75;;;5.60;;
40997;SDS011;26740;45.944;12.480;2023-03-14T03:39:07;9.90;;;5.80;;
40997;SDS011;26740;45.944;12.480;2023-03-14T03:41:33;10.25;;;5.95;;
40997;SDS011;26740;45.944;12.480;2023-03-14T03:43:59;12.27;;;5.97;;
40997;SDS011;26740;45.944;12.480;2023-03-14T03:46:24;12.18;;;5.10;;
40997;SDS011;26740;45.944;12.480;2023-03-14T03:48:54;10.80;;;6.10;;
40997;SDS011;26740;45.944;12.480;2023-03-14T03:51:20;10.13;;;5.97;;
40997;SDS011;26740;45.944;12.480;2023-03-14T03:53:45;10.32;;;5.38;;
40997;SDS011;26740;45.944;12.480;2023-03-14T03:56:11;10.65;;;5.88;;
40997;SDS011;26740;45.944;12.480;2023-03-14T03:58:36;11.38;;;6.18;;
40997;SDS011;26740;45.944;12.480;2023-03-14T04:01:04;7.97;;;5.60;;
40997;SDS011;26740;45.944;12.480;2023-03-14T04:03:31;13.65;;;6.05;;
40997;SDS011;26740;45.944;12.480;2023-03-14T04:06:09;11.13;;;6.43;;
40997;SDS011;26740;45.944;12.480;2023-03-14T04:08:37;10.02;;;6.60;;
40997;SDS011;26740;45.944;12.480;2023-03-14T04:11:04;8.05;;;6.32;;
40997;SDS011;26740;45.944;12.480;2023-03-14T04:13:30;14.02;;;6.70;;
40997;SDS011;26740;45.944;12.480;2023-03-14T04:15:55;8.43;;;5.88;;
40997;SDS011;26740;45.944;12.480;2023-03-14T04:18:22;11.93;;;6.57;;
40997;SDS011;26740;45.944;12.480;2023-03-14T04:20:56;13.77;;;6.40;;
40997;SDS011;26740;45.944;12.480;2023-03-14T04:23:23;14.63;;;7.35;;
40997;SDS011;26740;45.944;12.480;2023-03-14T04:25:52;9.77;;;6.50;;
40997;SDS011;26740;45.944;12.480;2023-03-14T04:28:18;12.45;;;6.57;;
40997;SDS011;26740;45.944;12.480;2023-03-14T04:30:44;13.32;;;7.13;;
40997;SDS011;26740;45.944;12.480;2023-03-14T04:33:10;10.80;;;6.30;;
40997;SDS011;26740;45.944;12.480;2023-03-14T04:35:37;10.15;;;6.07;;
40997;SDS011;26740;45.944;12.480;2023-03-14T04:38:03;13.70;;;6.60;;
40997;SDS011;26740;45.944;12.480;2023-03-14T04:40:29;10.57;;;6.07;;
40997;SDS011;26740;45.944;12.480;2023-03-14T04:42:54;12.10;;;6.22;;
40997;SDS011;26740;45.944;12.480;2023-03-14T04:45:20;10.20;;;6.45;;
40997;SDS011;26740;45.944;12.480;2023-03-14T04:47:45;10.05;;;5.07;;
40997;SDS011;26740;45.944;12.480;2023-03-14T04:50:11;7.13;;;5.32;;
40997;SDS011;26740;45.944;12.480;2023-03-14T04:52:37;10.15;;;5.85;;
40997;SDS011;26740;45.944;12.480;2023-03-14T04:55:02;10.35;;;5.57;;
40997;SDS011;26740;45.944;12.480;2023-03-14T04:57:28;7.75;;;6.10;;
40997;SDS011;26740;45.944;12.480;2023-03-14T04:59:54;11.27;;;5.55;;
40997;SDS011;26740;45.944;12.480;2023-03-14T05:02:20;8.23;;;5.95;;
40997;SDS011;26740;45.944;12.480;2023-03-14T05:04:45;10.23;;;5.38;;
40997;SDS011;26740;45.944;12.480;2023-03-14T05:07:11;9.88;;;5.28;;
40997;SDS011;26740;45.944;12.480;2023-03-14T05:09:36;8.70;;;5.45;;
40997;SDS011;26740;45.944;12.480;2023-03-14T05:12:02;7.15;;;5.45;;
40997;SDS011;26740;45.944;12.480;2023-03-14T05:14:28;6.20;;;5.03;;
40997;SDS011;26740;45.944;12.480;2023-03-14T05:16:53;9.32;;;5.38;;
40997;SDS011;26740;45.944;12.480;2023-03-14T05:19:19;10.13;;;5.50;;
40997;SDS011;26740;45.944;12.480;2023-03-14T05:21:44;10.80;;;5.28;;
40997;SDS011;26740;45.944;12.480;2023-03-14T05:24:10;9.63;;;5.55;;
40997;SDS011;26740;45.944;12.480;2023-03-14T05:26:36;7.03;;;5.15;;
40997;SDS011;26740;45.944;12.480;2023-03-14T05:29:01;7.03;;;5.13;;
40997;SDS011;26740;45.944;12.480;2023-03-14T05:31:27;8.25;;;5.35;;
40997;SDS011;26740;45.944;12.480;2023-03-14T05:33:52;6.10;;;5.20;;
40997;SDS011;26740;45.944;12.480;2023-03-14T05:36:18;8.55;;;5.68;;
40997;SDS011;26740;45.944;12.480;2023-03-14T05:38:44;7.10;;;4.45;;
40997;SDS011;26740;45.944;12.480;2023-03-14T05:41:09;8.98;;;4.20;;
40997;SDS011;26740;45.944;12.480;2023-03-14T05:43:35;7.78;;;4.57;;
40997;SDS011;26740;45.944;12.480;2023-03-14T05:46:00;5.55;;;4.25;;
40997;SDS011;26740;45.944;12.480;2023-03-14T05:48:26;8.20;;;4.78;;
40997;SDS011;26740;45.944;12.480;2023-03-14T05:50:55;9.52;;;5.30;;
40997;SDS011;26740;45.944;12.480;2023-03-14T05:53:21;8.98;;;5.55;;
40997;SDS011;26740;45.944;12.480;2023-03-14T05:55:47;9.27;;;5.15;;
40997;SDS011;26740;45.944;12.480;2023-03-14T05:58:15;7.40;;;4.55;;
40997;SDS011;26740;45.944;12.480;2023-03-14T06:00:41;9.45;;;5.85;;
40997;SDS011;26740;45.944;12.480;2023-03-14T06:03:06;8.60;;;5.75;;
40997;SDS011;26740;45.944;12.480;2023-03-14T06:05:32;11.50;;;5.60;;
40997;SDS011;26740;45.944;12.480;2023-03-14T06:07:58;9.18;;;5.68;;
40997;SDS011;26740;45.944;12.480;2023-03-14T06:10:23;12.85;;;6.35;;
40997;SDS011;26740;45.944;12.480;2023-03-14T06:12:49;17.35;;;8.60;;
40997;SDS011;26740;45.944;12.480;2023-03-14T06:15:14;12.35;;;6.50;;
40997;SDS011;26740;45.944;12.480;2023-03-14T06:17:40;12.00;;;6.85;;
40997;SDS011;26740;45.944;12.480;2023-03-14T06:20:05;10.93;;;6.45;;
40997;SDS011;26740;45.944;12.480;2023-03-14T06:22:31;15.20;;;7.00;;
40997;SDS011;26740;45.944;12.480;2023-03-14T06:24:57;14.98;;;7.43;;
40997;SDS011;26740;45.944;12.480;2023-03-14T06:27:22;12.65;;;5.60;;
40997;SDS011;26740;45.944;12.480;2023-03-14T06:29:48;8.35;;;5.38;;
40997;SDS011;26740;45.944;12.480;2023-03-14T06:32:14;12.23;;;5.57;;
40997;SDS011;26740;45.944;12.480;2023-03-14T06:34:39;9.70;;;5.47;;
40997;SDS011;26740;45.944;12.480;2023-03-14T06:37:06;11.32;;;5.65;;
40997;SDS011;26740;45.944;12.480;2023-03-14T06:39:31;11.70;;;5.10;;
40997;SDS011;26740;45.944;12.480;2023-03-14T06:41:57;11.30;;;5.63;;
40997;SDS011;26740;45.944;12.480;2023-03-14T06:44:22;10.52;;;5.22;;
40997;SDS011;26740;45.944;12.480;2023-03-14T06:46:48;12.10;;;4.97;;
40997;SDS011;26740;45.944;12.480;2023-03-14T06:49:14;11.55;;;5.72;;
40997;SDS011;26740;45.944;12.480;2023-03-14T06:51:39;13.23;;;5.43;;
40997;SDS011;26740;45.944;12.480;2023-03-14T06:54:05;11.70;;;5.13;;
40997;SDS011;26740;45.944;12.480;2023-03-14T06:56:31;10.90;;;5.85;;
40997;SDS011;26740;45.944;12.480;2023-03-14T06:58:57;10.55;;;4.88;;
40997;SDS011;26740;45.944;12.480;2023-03-14T07:01:23;10.40;;;5.22;;
40997;SDS011;26740;45.944;12.480;2023-03-14T07:03:51;15.15;;;5.35;;
40997;SDS011;26740;45.944;12.480;2023-03-14T07:06:17;10.88;;;4.55;;
40997;SDS011;26740;45.944;12.480;2023-03-14T07:08:42;6.30;;;4.05;;
40997;SDS011;26740;45.944;12.480;2023-03-14T07:11:08;12.93;;;4.72;;
40997;SDS011;26740;45.944;12.480;2023-03-14T07:13:36;7.20;;;4.18;;
40997;SDS011;26740;45.944;12.480;2023-03-14T07:16:02;9.15;;;4.28;;
40997;SDS011;26740;45.944;12.480;2023-03-14T07:18:28;15.20;;;4.93;;
40997;SDS011;26740;45.944;12.480;2023-03-14T07:20:54;13.48;;;4.53;;
40997;SDS011;26740;45.944;12.480;2023-03-14T07:23:20;8.20;;;4.93;;
40997;SDS011;26740;45.944;12.480;2023-03-14T07:25:45;11.13;;;5.35;;
40997;SDS011;26740;45.944;12.480;2023-03-14T07:28:11;11.88;;;4.90;;
40997;SDS011;26740;45.944;12.480;2023-03-14T07:30:36;13.35;;;5.82;;
40997;SDS011;26740;45.944;12.480;2023-03-14T07:33:02;13.73;;;5.78;;
40997;SDS011;26740;45.944;12.480;2023-03-14T07:35:28;11.70;;;6.38;;
40997;SDS011;26740;45.944;12.480;2023-03-14T07:37:53;14.82;;;6.22;;
40997;SDS011;26740;45.944;12.480;2023-03-14T07:40:19;12.63;;;6.10;;
40997;SDS011;26740;45.944;12.480;2023-03-14T07:42:45;8.38;;;5.53;;
40997;SDS011;26740;45.944;12.480;2023-03-14T07:45:11;13.57;;;7.22;;
40997;SDS011;26740;45.944;12.480;2023-03-14T07:47:37;20.40;;;7.65;;
40997;SDS011;26740;45.944;12.480;2023-03-14T07:50:03;16.95;;;7.57;;
40997;SDS011;26740;45.944;12.480;2023-03-14T07:52:30;17.77;;;8.18;;
40997;SDS011;26740;45.944;12.480;2023-03-14T07:54:55;12.80;;;9.20;;
40997;SDS011;26740;45.944;12.480;2023-03-14T07:57:21;21.02;;;9.70;;
40997;SDS011;26740;45.944;12.480;2023-03-14T07:59:47;18.90;;;9.13;;
40997;SDS011;26740;45.944;12.480;2023-03-14T08:02:13;24.75;;;8.38;;
40997;SDS011;26740;45.944;12.480;2023-03-14T08:04:39;17.17;;;8.57;;
40997;SDS011;26740;45.944;12.480;2023-03-14T08:07:05;16.85;;;9.15;;
40997;SDS011;26740;45.944;12.480;2023-03-14T08:09:31;18.50;;;9.05;;
40997;SDS011;26740;45.944;12.480;2023-03-14T08:11:57;11.60;;;7.32;;
40997;SDS011;26740;45.944;12.480;2023-03-14T08:14:23;15.63;;;8.23;;
40997;SDS011;26740;45.944;12.480;2023-03-14T08:16:51;16.25;;;8.60;;
40997;SDS011;26740;45.944;12.480;2023-03-14T08:19:17;14.18;;;7.20;;
40997;SDS011;26740;45.944;12.480;2023-03-14T08:21:43;18.95;;;7.10;;
40997;SDS011;26740;45.944;12.480;2023-03-14T08:24:09;11.20;;;6.35;;
40997;SDS011;26740;45.944;12.480;2023-03-14T08:26:34;15.93;;;6.70;;
40997;SDS011;26740;45.944;12.480;2023-03-14T08:29:00;11.52;;;6.63;;
40997;SDS011;26740;45.944;12.480;2023-03-14T08:31:26;9.23;;;5.95;;
40997;SDS011;26740;45.944;12.480;2023-03-14T08:33:51;10.52;;;6.05;;
40997;SDS011;26740;45.944;12.480;2023-03-14T08:36:18;8.13;;;5.65;;
40997;SDS011;26740;45.944;12.480;2023-03-14T08:38:45;10.13;;;5.60;;
40997;SDS011;26740;45.944;12.480;2023-03-14T08:41:10;11.82;;;5.60;;
40997;SDS011;26740;45.944;12.480;2023-03-14T08:43:36;10.40;;;5.05;;
40997;SDS011;26740;45.944;12.480;2023-03-14T08:46:02;7.85;;;5.47;;
40997;SDS011;26740;45.944;12.480;2023-03-14T08:48:28;13.20;;;5.72;;
40997;SDS011;26740;45.944;12.480;2023-03-14T08:51:04;9.98;;;5.30;;
40997;SDS011;26740;45.944;12.480;2023-03-14T08:53:33;9.57;;;4.75;;
40997;SDS011;26740;45.944;12.480;2023-03-14T08:55:59;11.43;;;5.97;;
40997;SDS011;26740;45.944;12.480;2023-03-14T08:58:25;16.02;;;5.53;;
40997;SDS011;26740;45.944;12.480;2023-03-14T09:00:50;8.07;;;4.75;;
40997;SDS011;26740;45.944;12.480;2023-03-14T09:03:16;13.38;;;5.93;;
40997;SDS011;26740;45.944;12.480;2023-03-14T09:05:41;10.57;;;4.95;;
40997;SDS011;26740;45.944;12.480;2023-03-14T09:08:07;9.02;;;4.70;;
40997;SDS011;26740;45.944;12.480;2023-03-14T09:10:39;8.55;;;4.32;;
40997;SDS011;26740;45.944;12.480;2023-03-14T09:13:04;11.90;;;5.07;;
40997;SDS011;26740;45.944;12.480;2023-03-14T09:18:20;7.43;;;4.30;;
40997;SDS011;26740;45.944;12.480;2023-03-14T09:20:47;11.23;;;4.55;;
40997;SDS011;26740;45.944;12.480;2023-03-14T09:23:14;10.57;;;4.72;;
40997;SDS011;26740;45.944;12.480;2023-03-14T09:25:40;11.25;;;4.82;;
40997;SDS011;26740;45.944;12.480;2023-03-14T09:28:05;7.75;;;4.20;;
40997;SDS011;26740;45.944;12.480;2023-03-14T09:30:31;8.60;;;4.70;;
40997;SDS011;26740;45.944;12.480;2023-03-14T09:32:57;12.15;;;5.22;;
40997;SDS011;26740;45.944;12.480;2023-03-14T09:35:24;14.90;;;4.15;;
40997;SDS011;26740;45.944;12.480;2023-03-14T09:37:50;11.00;;;4.78;;
40997;SDS011;26740;45.944;12.480;2023-03-14T09:40:16;13.65;;;4.95;;
40997;SDS011;26740;45.944;12.480;2023-03-14T09:42:43;12.93;;;4.80;;
40997;SDS011;26740;45.944;12.480;2023-03-14T09:45:24;16.30;;;4.88;;
40997;SDS011;26740;45.944;12.480;2023-03-14T09:47:52;11.48;;;3.75;;
40997;SDS011;26740;45.944;12.480;2023-03-14T09:50:20;13.15;;;4.05;;
40997;SDS011;26740;45.944;12.480;2023-03-14T09:52:48;11.25;;;4.60;;
40997;SDS011;26740;45.944;12.480;2023-03-14T09:55:19;13.43;;;3.72;;
40997;SDS011;26740;45.944;12.480;2023-03-14T09:57:47;15.73;;;3.70;;
40997;SDS011;26740;45.944;12.480;2023-03-14T10:00:22;17.23;;;4.15;;
40997;SDS011;26740;45.944;12.480;2023-03-14T10:02:55;11.82;;;3.22;;
40997;SDS011;26740;45.944;12.480;2023-03-14T10:05:23;8.40;;;2.95;;
40997;SDS011;26740;45.944;12.480;2023-03-14T10:07:50;29.42;;;15.75;;
40997;SDS011;26740;45.944;12.480;2023-03-14T10:10:20;15.65;;;5.88;;
40997;SDS011;26740;45.944;12.480;2023-03-14T10:12:47;12.45;;;3.03;;
40997;SDS011;26740;45.944;12.480;2023-03-14T10:15:27;10.40;;;2.83;;
40997;SDS011;26740;45.944;12.480;2023-03-14T10:17:58;9.48;;;3.17;;
40997;SDS011;26740;45.944;12.480;2023-03-14T10:20:39;15.23;;;3.97;;
40997;SDS011;26740;45.944;12.480;2023-03-14T10:23:17;12.88;;;3.10;;
40997;SDS011;26740;45.944;12.480;2023-03-14T10:26:06;12.05;;;3.05;;
40997;SDS011;26740;45.944;12.480;2023-03-14T10:28:37;12.90;;;3.03;;
40997;SDS011;26740;45.944;12.480;2023-03-14T10:31:03;8.07;;;3.33;;
40997;SDS011;26740;45.944;12.480;2023-03-14T10:33:33;11.75;;;4.28;;
40997;SDS011;26740;45.944;12.480;2023-03-14T10:36:02;16.58;;;4.35;;
40997;SDS011;26740;45.944;12.480;2023-03-14T10:38:32;12.48;;;3.92;;
40997;SDS011;26740;45.944;12.480;2023-03-14T10:41:00;13.70;;;4.25;;
40997;SDS011;26740;45.944;12.480;2023-03-14T10:43:33;15.35;;;4.40;;
40997;SDS011;26740;45.944;12.480;2023-03-14T10:46:04;15.05;;;4.22;;
40997;SDS011;26740;45.944;12.480;2023-03-14T10:48:35;13.73;;;4.10;;
40997;SDS011;26740;45.944;12.480;2023-03-14T10:51:06;14.38;;;3.42;;
40997;SDS011;26740;45.944;12.480;2023-03-14T10:53:39;14.43;;;3.10;;
40997;SDS011;26740;45.944;12.480;2023-03-14T10:56:07;11.85;;;3.22;;
40997;SDS011;26740;45.944;12.480;2023-03-14T10:58:42;8.63;;;3.55;;
40997;SDS011;26740;45.944;12.480;2023-03-14T11:04:01;16.25;;;4.80;;
40997;SDS011;26740;45.944;12.480;2023-03-14T11:11:44;8.93;;;2.90;;
40997;SDS011;26740;45.944;12.480;2023-03-14T11:17:02;13.45;;;3.60;;
40997;SDS011;26740;45.944;12.480;2023-03-14T11:24:50;14.38;;;4.28;;
40997;SDS011;26740;45.944;12.480;2023-03-14T11:27:34;8.88;;;2.70;;
40997;SDS011;26740;45.944;12.480;2023-03-14T11:30:15;11.93;;;2.78;;
40997;SDS011;26740;45.944;12.480;2023-03-14T11:35:22;14.55;;;2.10;;
40997;SDS011;26740;45.944;12.480;2023-03-14T11:38:22;15.88;;;2.45;;
40997;SDS011;26740;45.944;12.480;2023-03-14T11:41:00;5.18;;;1.17;;
40997;SDS011;26740;45.944;12.480;2023-03-14T11:43:28;11.25;;;2.28;;
40997;SDS011;26740;45.944;12.480;2023-03-14T11:46:01;6.18;;;1.15;;
40997;SDS011;26740;45.944;12.480;2023-03-14T11:48:57;13.48;;;2.15;;
40997;SDS011;26740;45.944;12.480;2023-03-14T11:51:56;11.77;;;2.40;;
40997;SDS011;26740;45.944;12.480;2023-03-14T11:54:39;7.63;;;1.48;;
40997;SDS011;26740;45.944;12.480;2023-03-14T11:57:17;5.90;;;1.50;;
40997;SDS011;26740;45.944;12.480;2023-03-14T12:02:26;10.05;;;1.80;;
40997;SDS011;26740;45.944;12.480;2023-03-14T12:10:40;15.27;;;2.72;;
40997;SDS011;26740;45.944;12.480;2023-03-14T12:13:14;12.27;;;1.48;;
40997;SDS011;26740;45.944;12.480;2023-03-14T12:15:54;8.70;;;1.58;;
40997;SDS011;26740;45.944;12.480;2023-03-14T12:18:31;7.97;;;1.00;;
40997;SDS011;26740;45.944;12.480;2023-03-14T12:21:06;5.60;;;1.42;;
40997;SDS011;26740;45.944;12.480;2023-03-14T12:28:37;7.32;;;1.52;;
40997;SDS011;26740;45.944;12.480;2023-03-14T12:34:40;7.57;;;1.15;;
40997;SDS011;26740;45.944;12.480;2023-03-14T12:41:48;6.32;;;1.77;;
40997;SDS011;26740;45.944;12.480;2023-03-14T12:46:58;5.20;;;1.52;;
40997;SDS011;26740;45.944;12.480;2023-03-14T12:49:31;7.85;;;1.88;;
40997;SDS011;26740;45.944;12.480;2023-03-14T12:52:10;15.43;;;2.85;;
40997;SDS011;26740;45.944;12.480;2023-03-14T12:54:43;11.20;;;2.38;;
40997;SDS011;26740;45.944;12.480;2023-03-14T12:57:22;10.65;;;2.42;;
40997;SDS011;26740;45.944;12.480;2023-03-14T12:59:56;11.32;;;2.70;;
40997;SDS011;26740;45.944;12.480;2023-03-14T13:05:09;9.68;;;1.98;;
40997;SDS011;26740;45.944;12.480;2023-03-14T13:13:01;12.02;;;1.80;;
40997;SDS011;26740;45.944;12.480;2023-03-14T13:15:47;8.30;;;1.80;;
40997;SDS011;26740;45.944;12.480;2023-03-14T13:18:18;11.57;;;2.45;;
40997;SDS011;26740;45.944;12.480;2023-03-14T13:23:37;10.75;;;1.88;;
40997;SDS011;26740;45.944;12.480;2023-03-14T13:26:03;12.45;;;2.40;;
40997;SDS011;26740;45.944;12.480;2023-03-14T13:28:38;10.23;;;2.58;;
40997;SDS011;26740;45.944;12.480;2023-03-14T13:31:04;13.07;;;2.30;;
40997;SDS011;26740;45.944;12.480;2023-03-14T13:33:31;9.82;;;2.35;;
40997;SDS011;26740;45.944;12.480;2023-03-14T13:36:00;11.50;;;1.95;;
40997;SDS011;26740;45.944;12.480;2023-03-14T13:38:29;6.90;;;2.10;;
40997;SDS011;26740;45.944;12.480;2023-03-14T13:40:57;8.02;;;2.42;;
40997;SDS011;26740;45.944;12.480;2023-03-14T13:46:10;9.65;;;2.80;;
40997;SDS011;26740;45.944;12.480;2023-03-14T13:48:58;11.68;;;2.60;;
40997;SDS011;26740;45.944;12.480;2023-03-14T13:51:26;8.75;;;2.25;;
40997;SDS011;26740;45.944;12.480;2023-03-14T13:53:56;14.23;;;2.67;;
40997;SDS011;26740;45.944;12.480;2023-03-14T13:56:24;9.52;;;2.30;;
40997;SDS011;26740;45.944;12.480;2023-03-14T13:58:52;8.20;;;2.17;;
40997;SDS011;26740;45.944;12.480;2023-03-14T14:01:19;5.65;;;1.58;;
40997;SDS011;26740;45.944;12.480;2023-03-14T14:03:49;7.63;;;1.10;;
40997;SDS011;26740;45.944;12.480;2023-03-14T14:06:21;9.38;;;2.08;;
40997;SDS011;26740;45.944;12.480;2023-03-14T14:08:55;9.55;;;1.83;;
40997;SDS011;26740;45.944;12.480;2023-03-14T14:11:28;10.95;;;2.25;;
40997;SDS011;26740;45.944;12.480;2023-03-14T14:14:03;16.35;;;2.70;;
40997;SDS011;26740;45.944;12.480;2023-03-14T14:16:31;13.85;;;2.17;;
40997;SDS011;26740;45.944;12.480;2023-03-14T14:18:57;9.48;;;2.35;;
40997;SDS011;26740;45.944;12.480;2023-03-14T14:21:25;10.32;;;2.45;;
40997;SDS011;26740;45.944;12.480;2023-03-14T14:23:51;11.23;;;2.50;;
40997;SDS011;26740;45.944;12.480;2023-03-14T14:26:19;11.18;;;2.20;;
40997;SDS011;26740;45.944;12.480;2023-03-14T14:28:45;13.25;;;2.67;;
40997;SDS011;26740;45.944;12.480;2023-03-14T14:33:58;8.82;;;2.25;;
40997;SDS011;26740;45.944;12.480;2023-03-14T14:36:31;6.80;;;1.50;;
40997;SDS011;26740;45.944;12.480;2023-03-14T14:39:03;12.20;;;3.03;;
40997;SDS011;26740;45.944;12.480;2023-03-14T14:41:39;9.13;;;1.60;;
40997;SDS011;26740;45.944;12.480;2023-03-14T14:44:06;8.43;;;1.70;;
40997;SDS011;26740;45.944;12.480;2023-03-14T14:46:33;14.07;;;2.22;;
40997;SDS011;26740;45.944;12.480;2023-03-14T14:49:14;6.50;;;1.67;;
40997;SDS011;26740;45.944;12.480;2023-03-14T14:51:45;5.43;;;1.52;;
40997;SDS011;26740;45.944;12.480;2023-03-14T14:54:17;7.45;;;2.22;;
40997;SDS011;26740;45.944;12.480;2023-03-14T14:56:46;10.57;;;2.15;;
40997;SDS011;26740;45.944;12.480;2023-03-14T14:59:26;10.02;;;2.42;;
40997;SDS011;26740;45.944;12.480;2023-03-14T15:02:02;9.73;;;2.30;;
40997;SDS011;26740;45.944;12.480;2023-03-14T15:04:30;19.73;;;2.92;;
40997;SDS011;26740;45.944;12.480;2023-03-14T15:06:56;9.30;;;1.90;;
40997;SDS011;26740;45.944;12.480;2023-03-14T15:09:22;14.57;;;1.92;;
40997;SDS011;26740;45.944;12.480;2023-03-14T15:11:48;6.00;;;1.65;;
40997;SDS011;26740;45.944;12.480;2023-03-14T15:14:14;10.93;;;1.70;;
40997;SDS011;26740;45.944;12.480;2023-03-14T15:16:40;10.50;;;1.90;;
40997;SDS011;26740;45.944;12.480;2023-03-14T15:19:39;10.98;;;2.40;;
40997;SDS011;26740;45.944;12.480;2023-03-14T15:21:58;15.98;;;2.15;;
40997;SDS011;26740;45.944;12.480;2023-03-14T15:24:23;8.10;;;1.90;;
40997;SDS011;26740;45.944;12.480;2023-03-14T15:26:49;8.32;;;2.03;;
40997;SDS011;26740;45.944;12.480;2023-03-14T15:29:16;8.73;;;2.03;;
40997;SDS011;26740;45.944;12.480;2023-03-14T15:31:41;10.98;;;2.42;;
40997;SDS011;26740;45.944;12.480;2023-03-14T15:34:09;9.30;;;2.40;;
40997;SDS011;26740;45.944;12.480;2023-03-14T15:36:35;10.30;;;2.67;;
40997;SDS011;26740;45.944;12.480;2023-03-14T15:39:02;8.57;;;2.78;;
40997;SDS011;26740;45.944;12.480;2023-03-14T15:41:30;11.15;;;3.60;;